Time;durP1;ratioP1;P1;durP2;ratioP2;P2;SDS_P1;SDS_P2;PMS_P1;PMS_P2;Temp;Humidity;BMP_temperature;BMP_pressure;BME280_temperature;BME280_humidity;BME280_pressure;Samples;Min_cycle;Max_cycle;Signal;HPM_P1;HPM_P2
2022/05/03 00:00:21;;;;;;;15.00;9.27;;;9.50;99.90;;;;;;21162361;28;20154;-72
2022/05/03 00:10:35;;;;;;;25.83;13.93;;;9.60;99.90;;;;;;21161344;28;20059;-72
2022/05/03 00:20:37;;;;;;;36.53;17.80;;;9.50;99.90;;;;;;21160921;28;20550;-72
2022/05/03 00:30:39;;;;;;;41.42;20.75;;;9.30;99.90;;;;;;21158615;28;20043;-72
2022/05/03 00:40:47;;;;;;;36.92;19.83;;;9.10;99.90;;;;;;21159636;28;20079;-72
2022/05/03 00:51:08;;;;;;;37.55;21.08;;;9.20;99.90;;;;;;21158822;28;20042;-72
2022/05/03 01:01:37;;;;;;;50.13;23.80;;;9.20;99.90;;;;;;21158072;28;20453;-72
2022/05/03 01:12:09;;;;;;;31.08;17.38;;;9.10;99.90;;;;;;21157732;28;20374;-72
2022/05/03 01:22:44;;;;;;;32.33;18.17;;;9.00;99.90;;;;;;21157384;28;20497;-72
2022/05/03 01:32:45;;;;;;;29.13;15.85;;;9.00;99.90;;;;;;21157084;28;20034;-72
2022/05/03 01:42:49;;;;;;;23.95;15.50;;;9.10;99.90;;;;;;21156356;28;20031;-72
2022/05/03 01:53:25;;;;;;;27.90;14.98;;;8.90;99.90;;;;;;21173727;28;20116;-72
2022/05/03 02:03:48;;;;;;;27.73;14.73;;;8.70;99.90;;;;;;21181852;28;20444;-72
2022/05/03 02:24:27;;;;;;;24.25;12.38;;;8.50;99.90;;;;;;21170434;28;20393;-72
2022/05/03 02:34:34;;;;;;;22.65;14.10;;;8.40;99.90;;;;;;21169465;28;20042;-72
2022/05/03 02:44:35;;;;;;;21.20;13.80;;;8.30;99.90;;;;;;21168591;28;20028;-71
2022/05/03 02:54:47;;;;;;;23.42;15.27;;;8.30;99.90;;;;;;21166826;28;20106;-72
2022/05/03 03:05:06;;;;;;;31.10;15.77;;;8.10;99.90;;;;;;21167167;28;20027;-70
2022/05/03 03:15:09;;;;;;;25.17;14.98;;;8.10;99.90;;;;;;21166107;28;20513;-70
2022/05/03 03:25:12;;;;;;;23.75;14.27;;;8.10;99.90;;;;;;21165187;28;20106;-70
2022/05/03 03:35:15;;;;;;;27.02;16.63;;;8.20;99.90;;;;;;21164812;28;20594;-71
2022/05/03 03:45:17;;;;;;;26.17;17.05;;;7.80;99.90;;;;;;21163832;28;20028;-70
2022/05/03 03:55:19;;;;;;;24.70;13.77;;;7.70;99.90;;;;;;21084620;28;20119;-71
2022/05/03 04:05:23;;;;;;;25.27;15.07;;;7.70;99.90;;;;;;21076472;28;20060;-71
2022/05/03 04:15:26;;;;;;;23.65;14.57;;;7.60;99.90;;;;;;21010903;28;20092;-71
2022/05/03 04:25:27;;;;;;;22.98;13.60;;;7.70;99.90;;;;;;21069442;28;20031;-71
2022/05/03 04:35:28;;;;;;;24.57;15.20;;;7.70;99.90;;;;;;21095076;28;20020;-71
2022/05/03 04:45:29;;;;;;;19.07;11.77;;;7.80;99.90;;;;;;21136876;28;20293;-71
2022/05/03 04:55:29;;;;;;;23.30;13.43;;;8.00;99.90;;;;;;21158666;28;20044;-71
2022/05/03 05:05:30;;;;;;;19.63;11.57;;;8.00;99.90;;;;;;21158217;28;20039;-71
2022/05/03 05:15:31;;;;;;;19.47;12.40;;;8.10;99.90;;;;;;21180858;22;20411;-83
2022/05/03 05:25:33;;;;;;;21.48;11.75;;;8.20;99.90;;;;;;21181759;28;20073;-83
2022/05/03 05:35:35;;;;;;;15.00;9.90;;;8.10;99.90;;;;;;21164376;28;20107;-86
2022/05/03 05:45:37;;;;;;;20.83;11.07;;;8.30;99.90;;;;;;21183036;28;20053;-83
2022/05/03 05:55:38;;;;;;;21.70;12.07;;;8.60;99.90;;;;;;21163134;28;20078;-85
2022/05/03 06:05:39;;;;;;;18.80;10.77;;;9.20;99.90;;;;;;21158401;28;20492;-83
2022/05/03 06:15:40;;;;;;;16.93;10.30;;;9.60;99.90;;;;;;21157039;28;20892;-85
2022/05/03 06:25:41;;;;;;;12.03;8.27;;;10.50;99.90;;;;;;21138695;28;20074;-82
2022/05/03 06:35:42;;;;;;;15.17;9.27;;;11.20;99.90;;;;;;21149418;28;20039;-86
2022/05/03 06:45:43;;;;;;;16.00;9.33;;;11.80;99.90;;;;;;21153940;28;20483;-82
2022/05/03 06:55:44;;;;;;;11.00;8.13;;;12.60;99.90;;;;;;21155244;28;20035;-81
2022/05/03 07:05:45;;;;;;;13.83;8.40;;;13.30;99.90;;;;;;21155674;28;20508;-81
2022/05/03 07:15:46;;;;;;;10.57;7.30;;;14.50;99.90;;;;;;21171609;28;20122;-83
2022/05/03 07:25:47;;;;;;;8.83;6.90;;;14.90;99.90;;;;;;21151480;28;20092;-83
2022/05/03 07:35:48;;;;;;;12.07;6.67;;;15.70;99.90;;;;;;21174151;28;20032;-84
2022/05/03 07:45:49;;;;;;;9.20;6.80;;;16.60;99.90;;;;;;21173142;28;20039;-82
2022/05/03 07:55:50;;;;;;;9.80;6.23;;;17.20;99.90;;;;;;21172789;28;20028;-82
2022/05/03 08:05:51;;;;;;;9.07;6.63;;;18.50;99.90;;;;;;21168358;28;20447;-83
2022/05/03 08:15:52;;;;;;;9.90;7.33;;;18.10;99.90;;;;;;21174761;28;20837;-83
2022/05/03 08:25:53;;;;;;;10.17;6.40;;;19.10;99.90;;;;;;21158625;28;20031;-83
2022/05/03 08:35:53;;;;;;;9.07;6.43;;;19.70;99.90;;;;;;21170971;28;20043;-82
2022/05/03 08:45:56;;;;;;;8.03;6.30;;;20.90;99.90;;;;;;21153153;28;20028;-82
2022/05/03 08:55:57;;;;;;;8.40;6.10;;;21.20;99.90;;;;;;21172009;28;20487;-85
2022/05/03 09:05:58;;;;;;;8.30;6.23;;;21.80;99.90;;;;;;21135071;28;20043;-86
2022/05/03 09:16:10;;;;;;;7.63;6.47;;;22.10;99.90;;;;;;21120911;28;20060;-85
2022/05/03 09:26:22;;;;;;;8.05;5.85;;;21.70;99.90;;;;;;21102988;28;20059;-84
2022/05/03 09:36:23;;;;;;;11.35;6.57;;;22.00;99.90;;;;;;21123526;28;20438;-85
2022/05/03 09:46:24;;;;;;;5.88;5.28;;;23.10;99.90;;;;;;21077106;28;20127;-86
2022/05/03 09:56:31;;;;;;;5.43;4.80;;;24.40;99.90;;;;;;21063836;28;20039;-85
2022/05/03 10:06:33;;;;;;;5.30;4.30;;;23.90;99.90;;;;;;21087801;28;20028;-85
2022/05/03 10:27:02;;;;;;;6.30;4.25;;;23.50;99.90;;;;;;21103704;28;20032;-84
2022/05/03 10:37:03;;;;;;;5.68;4.38;;;24.80;99.90;;;;;;21082529;28;20032;-86
2022/05/03 10:47:04;;;;;;;6.30;3.33;;;26.20;99.90;;;;;;21101288;28;20028;-83
2022/05/03 10:57:09;;;;;;;;;;;25.10;99.90;;;;;;21084492;28;20519;-85
2022/05/03 11:07:10;;;;;;;7.75;4.28;;;25.70;99.90;;;;;;21091458;28;19912;-85
2022/05/03 11:17:14;;;;;;;6.65;3.60;;;26.70;97.90;;;;;;21127960;22;20079;-74
2022/05/03 11:27:16;;;;;;;10.43;2.35;;;25.50;99.90;;;;;;21165627;28;20043;-74
2022/05/03 11:37:17;;;;;;;4.72;1.98;;;24.60;99.30;;;;;;21164953;28;20028;-73
2022/05/03 11:47:18;;;;;;;3.23;2.43;;;21.70;99.90;;;;;;21164092;28;20039;-73
2022/05/03 11:57:22;;;;;;;3.27;2.30;;;20.90;99.90;;;;;;21163480;28;20058;-73
2022/05/03 12:07:23;;;;;;;2.80;2.33;;;22.10;99.90;;;;;;21162607;28;20032;-73
2022/05/03 12:17:24;;;;;;;3.57;2.40;;;24.70;98.70;;;;;;21161621;28;20042;-73
2022/05/03 12:27:25;;;;;;;6.72;2.55;;;22.20;99.90;;;;;;21160488;28;20024;-73
2022/05/03 12:37:26;;;;;;;3.40;2.10;;;21.40;99.90;;;;;;21160250;28;20030;-74
2022/05/03 12:47:27;;;;;;;3.80;2.63;;;21.70;99.90;;;;;;21159523;28;20038;-73
2022/05/03 13:07:48;;;;;;;5.70;1.95;;;22.00;99.90;;;;;;21158526;28;20032;-74
2022/05/03 13:17:48;;;;;;;1.67;1.57;;;22.20;99.90;;;;;;21157958;28;20042;-72
2022/05/03 13:27:50;;;;;;;1.73;1.50;;;21.70;99.90;;;;;;21155975;28;20489;-73
2022/05/03 13:48:15;;;;;;;4.70;1.75;;;21.70;99.90;;;;;;21143884;28;20047;-73
2022/05/03 13:58:17;;;;;;;5.05;1.73;;;20.70;99.90;;;;;;21172667;28;20028;-73
2022/05/03 14:08:19;;;;;;;4.82;2.40;;;21.60;99.90;;;;;;21171824;28;20023;-73
2022/05/03 14:18:20;;;;;;;1.20;1.00;;;20.20;99.90;;;;;;21169969;28;20036;-73
2022/05/03 14:28:22;;;;;;;2.80;0.93;;;20.00;99.90;;;;;;21169062;28;20038;-75
2022/05/03 14:38:23;;;;;;;3.85;1.40;;;20.20;98.50;;;;;;21169517;28;20047;-73
2022/05/03 14:48:24;;;;;;;0.60;0.60;;;20.70;98.50;;;;;;21168870;28;20035;-73
2022/05/03 15:08:44;;;;;;;3.78;1.00;;;22.20;96.80;;;;;;21147894;28;20037;-73
2022/05/03 15:18:45;;;;;;;2.50;1.50;;;22.80;96.40;;;;;;21050345;28;20413;-73
2022/05/03 15:28:46;;;;;;;3.63;1.70;;;23.40;97.20;;;;;;21041238;28;20169;-73
2022/05/03 15:38:47;;;;;;;1.70;1.40;;;22.30;98.80;;;;;;21024829;28;20043;-74
2022/05/03 15:48:47;;;;;;;3.90;1.90;;;22.20;98.80;;;;;;21062155;28;20165;-73
2022/05/03 15:58:48;;;;;;;3.57;2.40;;;22.90;97.70;;;;;;21096896;28;20393;-73
2022/05/03 16:08:49;;;;;;;5.70;2.17;;;21.90;99.90;;;;;;21103744;28;20559;-75
2022/05/03 16:18:50;;;;;;;2.20;1.70;;;20.40;99.90;;;;;;21063995;28;20138;-73
2022/05/03 16:28:52;;;;;;;4.40;2.10;;;20.00;99.90;;;;;;21055101;28;20807;-75
2022/05/03 16:49:12;;;;;;;5.70;2.50;;;17.90;99.90;;;;;;21054405;28;20081;-75
2022/05/03 16:59:16;;;;;;;9.30;2.47;;;17.20;99.90;;;;;;21055202;28;20520;-74
2022/05/03 17:09:17;;;;;;;3.65;2.58;;;17.30;99.90;;;;;;21096457;28;20038;-75
2022/05/03 17:19:18;;;;;;;6.90;1.87;;;17.30;99.90;;;;;;21108871;22;20048;-75
2022/05/03 17:29:19;;;;;;;2.20;2.00;;;17.30;99.90;;;;;;21013952;28;20045;-75
2022/05/03 17:39:20;;;;;;;6.17;2.10;;;17.40;99.90;;;;;;20994821;28;20293;-76
2022/05/03 17:49:34;;;;;;;4.03;2.37;;;17.00;99.90;;;;;;21051945;28;20032;-75
2022/05/03 17:59:35;;;;;;;4.22;2.47;;;16.90;99.90;;;;;;21051636;28;20379;-76
2022/05/03 18:09:36;;;;;;;5.73;2.83;;;16.60;99.90;;;;;;21036917;28;20044;-76
2022/05/03 18:19:40;;;;;;;4.73;2.30;;;15.90;99.90;;;;;;21062327;28;20035;-77
2022/05/03 18:29:41;;;;;;;5.30;2.60;;;15.80;99.90;;;;;;21073758;28;20048;-77
2022/05/03 18:39:42;;;;;;;6.97;3.13;;;15.40;99.90;;;;;;21057451;28;20110;-77
2022/05/03 18:49:43;;;;;;;3.30;2.77;;;14.30;99.90;;;;;;20981913;28;20143;-77
2022/05/03 18:59:43;;;;;;;6.67;3.47;;;14.00;99.90;;;;;;20991795;28;20393;-77
2022/05/03 19:09:44;;;;;;;3.03;2.40;;;14.20;99.90;;;;;;21089725;28;20689;-76
2022/05/03 19:19:45;;;;;;;4.00;3.07;;;14.40;99.90;;;;;;21046763;28;20040;-76
2022/05/03 19:40:07;;;;;;;6.70;3.00;;;13.90;99.90;;;;;;21058555;28;20036;-76
2022/05/03 19:50:08;;;;;;;5.32;2.90;;;13.90;99.90;;;;;;21133489;28;20035;-75
2022/05/03 20:00:10;;;;;;;7.47;2.87;;;13.90;99.90;;;;;;21034877;28;20035;-76
2022/05/03 20:10:14;;;;;;;7.65;3.28;;;13.80;99.90;;;;;;21053795;28;20417;-76
2022/05/03 20:20:16;;;;;;;;;;;13.20;99.90;;;;;;21054950;28;20671;-75
2022/05/03 20:30:17;;;;;;;4.53;3.38;;;13.10;99.90;;;;;;21055111;28;19939;-76
2022/05/03 20:40:17;;;;;;;3.63;2.97;;;12.80;99.90;;;;;;21053025;28;20055;-76
2022/05/03 20:50:19;;;;;;;5.90;3.53;;;13.00;99.90;;;;;;21070228;27;20039;-75
2022/05/03 21:00:21;;;;;;;6.20;4.35;;;12.50;99.90;;;;;;21020195;28;20043;-75
2022/05/03 21:10:21;;;;;;;6.27;3.77;;;12.00;99.90;;;;;;21018695;28;20028;-75
2022/05/03 21:20:22;;;;;;;7.00;4.20;;;11.60;99.90;;;;;;21029126;28;20032;-76
2022/05/03 21:30:24;;;;;;;6.07;4.63;;;11.10;99.90;;;;;;21029007;28;20081;-75
2022/05/03 21:40:25;;;;;;;12.60;4.77;;;11.30;99.90;;;;;;21040577;28;20550;-74
2022/05/03 21:50:26;;;;;;;8.80;4.03;;;11.00;99.90;;;;;;21074895;28;20784;-75
2022/05/03 22:00:47;;;;;;;7.57;3.87;;;11.00;99.90;;;;;;21072910;28;20173;-76
2022/05/03 22:10:48;;;;;;;8.30;4.40;;;11.00;99.90;;;;;;21087652;28;20635;-75
2022/05/03 22:20:49;;;;;;;5.97;4.63;;;10.90;99.90;;;;;;21086532;28;20043;-75
2022/05/03 22:30:49;;;;;;;15.77;4.60;;;10.20;99.90;;;;;;21085110;28;20036;-75
2022/05/03 22:40:50;;;;;;;6.33;4.70;;;9.70;99.90;;;;;;21084961;28;20028;-75
2022/05/03 22:50:51;;;;;;;6.57;4.30;;;9.50;99.90;;;;;;21082808;28;20484;-72
2022/05/03 23:00:52;;;;;;;7.83;4.30;;;9.60;99.90;;;;;;21083965;28;20028;-75
2022/05/03 23:10:53;;;;;;;4.47;3.57;;;9.50;99.90;;;;;;21088170;28;20036;-75
2022/05/03 23:20:54;;;;;;;7.00;4.00;;;9.50;99.90;;;;;;21154094;22;20040;-72
2022/05/03 23:30:56;;;;;;;;;;;9.20;99.90;;;;;;21165725;28;20038;-72
2022/05/03 23:40:56;;;;;;;13.02;4.57;;;8.80;99.90;;;;;;21164444;28;19949;-72
2022/05/03 23:50:59;;;;;;;6.63;4.00;;;8.70;99.90;;;;;;21164294;28;20069;-72
